sensor_id;sensor_type;location;lat;lon;timestamp;P1;durP1;ratioP1;P2;durP2;ratioP2
14722;SDS011;7452;55.594;12.986;2022-11-15T00:02:13;46.50;;;29.00;;
14722;SDS011;7452;55.594;12.986;2022-11-15T00:04:40;46.67;;;30.03;;
14722;SDS011;7452;55.594;12.986;2022-11-15T00:07:09;45.03;;;29.47;;
14722;SDS011;7452;55.594;12.986;2022-11-15T00:09:36;45.27;;;29.70;;
14722;SDS011;7452;55.594;12.986;2022-11-15T00:12:03;46.73;;;29.67;;
14722;SDS011;7452;55.594;12.986;2022-11-15T00:14:30;47.80;;;30.83;;
14722;SDS011;7452;55.594;12.986;2022-11-15T00:16:57;44.60;;;28.73;;
14722;SDS011;7452;55.594;12.986;2022-11-15T00:19:24;44.73;;;28.23;;
14722;SDS011;7452;55.594;12.986;2022-11-15T00:21:51;45.20;;;29.03;;
14722;SDS011;7452;55.594;12.986;2022-11-15T00:24:20;45.37;;;28.43;;
14722;SDS011;7452;55.594;12.986;2022-11-15T00:26:46;45.50;;;28.47;;
14722;SDS011;7452;55.594;12.986;2022-11-15T00:29:13;45.63;;;28.50;;
14722;SDS011;7452;55.594;12.986;2022-11-15T00:31:40;43.47;;;27.87;;
14722;SDS011;7452;55.594;12.986;2022-11-15T00:34:08;42.83;;;27.97;;
14722;SDS011;7452;55.594;12.986;2022-11-15T00:36:36;40.10;;;27.13;;
14722;SDS011;7452;55.594;12.986;2022-11-15T00:39:03;45.40;;;29.43;;
14722;SDS011;7452;55.594;12.986;2022-11-15T00:41:32;40.97;;;26.93;;
14722;SDS011;7452;55.594;12.986;2022-11-15T00:43:59;40.33;;;26.90;;
14722;SDS011;7452;55.594;12.986;2022-11-15T00:46:26;42.63;;;27.27;;
14722;SDS011;7452;55.594;12.986;2022-11-15T00:48:53;43.67;;;27.57;;
14722;SDS011;7452;55.594;12.986;2022-11-15T00:51:20;44.37;;;28.37;;
14722;SDS011;7452;55.594;12.986;2022-11-15T00:53:48;40.60;;;28.33;;
14722;SDS011;7452;55.594;12.986;2022-11-15T00:56:15;42.37;;;26.47;;
14722;SDS011;7452;55.594;12.986;2022-11-15T00:58:43;41.53;;;27.30;;
14722;SDS011;7452;55.594;12.986;2022-11-15T01:01:11;41.93;;;27.50;;
14722;SDS011;7452;55.594;12.986;2022-11-15T01:03:39;40.67;;;26.80;;
14722;SDS011;7452;55.594;12.986;2022-11-15T01:06:07;45.87;;;28.60;;
14722;SDS011;7452;55.594;12.986;2022-11-15T01:08:34;46.53;;;29.57;;
14722;SDS011;7452;55.594;12.986;2022-11-15T01:11:02;44.07;;;28.77;;
14722;SDS011;7452;55.594;12.986;2022-11-15T01:13:30;43.23;;;27.87;;
14722;SDS011;7452;55.594;12.986;2022-11-15T01:15:59;47.87;;;29.23;;
14722;SDS011;7452;55.594;12.986;2022-11-15T01:18:32;41.73;;;27.87;;
14722;SDS011;7452;55.594;12.986;2022-11-15T01:20:58;46.00;;;29.23;;
14722;SDS011;7452;55.594;12.986;2022-11-15T01:23:25;41.57;;;27.70;;
14722;SDS011;7452;55.594;12.986;2022-11-15T01:25:52;42.03;;;26.47;;
14722;SDS011;7452;55.594;12.986;2022-11-15T01:28:25;41.63;;;27.93;;
14722;SDS011;7452;55.594;12.986;2022-11-15T01:30:57;43.87;;;28.80;;
14722;SDS011;7452;55.594;12.986;2022-11-15T01:33:25;41.37;;;27.83;;
14722;SDS011;7452;55.594;12.986;2022-11-15T01:35:52;40.03;;;27.57;;
14722;SDS011;7452;55.594;12.986;2022-11-15T01:38:20;43.27;;;27.53;;
14722;SDS011;7452;55.594;12.986;2022-11-15T01:40:47;43.47;;;28.40;;
14722;SDS011;7452;55.594;12.986;2022-11-15T01:43:18;51.10;;;28.23;;
14722;SDS011;7452;55.594;12.986;2022-11-15T01:45:47;41.40;;;27.10;;
14722;SDS011;7452;55.594;12.986;2022-11-15T01:48:19;41.40;;;28.53;;
14722;SDS011;7452;55.594;12.986;2022-11-15T01:50:48;42.83;;;28.83;;
14722;SDS011;7452;55.594;12.986;2022-11-15T01:53:16;48.67;;;29.50;;
14722;SDS011;7452;55.594;12.986;2022-11-15T01:55:46;44.33;;;28.53;;
14722;SDS011;7452;55.594;12.986;2022-11-15T01:58:13;44.70;;;28.33;;
14722;SDS011;7452;55.594;12.986;2022-11-15T02:00:39;42.77;;;28.60;;
14722;SDS011;7452;55.594;12.986;2022-11-15T02:03:07;43.73;;;29.73;;
14722;SDS011;7452;55.594;12.986;2022-11-15T02:05:33;44.27;;;28.90;;
14722;SDS011;7452;55.594;12.986;2022-11-15T02:08:04;44.73;;;28.57;;
14722;SDS011;7452;55.594;12.986;2022-11-15T02:10:32;43.23;;;29.30;;
14722;SDS011;7452;55.594;12.986;2022-11-15T02:12:59;46.87;;;29.83;;
14722;SDS011;7452;55.594;12.986;2022-11-15T02:15:30;46.30;;;28.80;;
14722;SDS011;7452;55.594;12.986;2022-11-15T02:18:07;46.37;;;28.87;;
14722;SDS011;7452;55.594;12.986;2022-11-15T02:20:50;43.90;;;29.13;;
14722;SDS011;7452;55.594;12.986;2022-11-15T02:27:03;48.93;;;29.70;;
14722;SDS011;7452;55.594;12.986;2022-11-15T02:30:01;43.20;;;28.93;;
14722;SDS011;7452;55.594;12.986;2022-11-15T02:32:40;44.27;;;29.17;;
14722;SDS011;7452;55.594;12.986;2022-11-15T02:35:12;44.43;;;29.40;;
14722;SDS011;7452;55.594;12.986;2022-11-15T02:37:45;45.00;;;30.07;;
14722;SDS011;7452;55.594;12.986;2022-11-15T02:40:20;42.53;;;28.30;;
14722;SDS011;7452;55.594;12.986;2022-11-15T02:42:55;44.90;;;28.37;;
14722;SDS011;7452;55.594;12.986;2022-11-15T02:45:45;43.13;;;28.13;;
14722;SDS011;7452;55.594;12.986;2022-11-15T02:48:17;41.23;;;27.93;;
14722;SDS011;7452;55.594;12.986;2022-11-15T02:50:45;41.30;;;28.33;;
14722;SDS011;7452;55.594;12.986;2022-11-15T02:53:14;42.23;;;28.53;;
14722;SDS011;7452;55.594;12.986;2022-11-15T02:55:44;43.70;;;28.27;;
14722;SDS011;7452;55.594;12.986;2022-11-15T03:01:09;42.03;;;27.80;;
14722;SDS011;7452;55.594;12.986;2022-11-15T03:03:48;38.43;;;27.00;;
14722;SDS011;7452;55.594;12.986;2022-11-15T03:06:27;42.83;;;28.50;;
14722;SDS011;7452;55.594;12.986;2022-11-15T03:09:05;40.50;;;27.70;;
14722;SDS011;7452;55.594;12.986;2022-11-15T03:11:36;42.37;;;27.30;;
14722;SDS011;7452;55.594;12.986;2022-11-15T03:14:09;42.63;;;27.63;;
14722;SDS011;7452;55.594;12.986;2022-11-15T03:16:47;40.97;;;27.80;;
14722;SDS011;7452;55.594;12.986;2022-11-15T03:19:21;40.00;;;27.83;;
14722;SDS011;7452;55.594;12.986;2022-11-15T03:21:55;44.17;;;29.83;;
14722;SDS011;7452;55.594;12.986;2022-11-15T03:24:26;45.07;;;28.83;;
14722;SDS011;7452;55.594;12.986;2022-11-15T03:26:56;44.53;;;29.47;;
14722;SDS011;7452;55.594;12.986;2022-11-15T03:29:27;45.70;;;29.53;;
14722;SDS011;7452;55.594;12.986;2022-11-15T03:32:02;42.43;;;28.47;;
14722;SDS011;7452;55.594;12.986;2022-11-15T03:34:33;44.97;;;30.37;;
14722;SDS011;7452;55.594;12.986;2022-11-15T03:37:04;44.87;;;28.57;;
14722;SDS011;7452;55.594;12.986;2022-11-15T03:39:33;42.93;;;28.20;;
14722;SDS011;7452;55.594;12.986;2022-11-15T03:42:04;41.33;;;29.77;;
14722;SDS011;7452;55.594;12.986;2022-11-15T03:44:40;44.20;;;28.97;;
14722;SDS011;7452;55.594;12.986;2022-11-15T03:47:15;43.87;;;29.17;;
14722;SDS011;7452;55.594;12.986;2022-11-15T03:49:46;41.57;;;28.10;;
14722;SDS011;7452;55.594;12.986;2022-11-15T03:52:17;46.83;;;31.00;;
14722;SDS011;7452;55.594;12.986;2022-11-15T03:54:52;45.57;;;30.23;;
14722;SDS011;7452;55.594;12.986;2022-11-15T03:57:21;43.80;;;30.90;;
14722;SDS011;7452;55.594;12.986;2022-11-15T03:59:48;47.93;;;31.30;;
14722;SDS011;7452;55.594;12.986;2022-11-15T04:02:16;44.27;;;29.53;;
14722;SDS011;7452;55.594;12.986;2022-11-15T04:04:43;45.80;;;30.77;;
14722;SDS011;7452;55.594;12.986;2022-11-15T04:07:10;45.03;;;30.63;;
14722;SDS011;7452;55.594;12.986;2022-11-15T04:09:37;45.63;;;30.37;;
14722;SDS011;7452;55.594;12.986;2022-11-15T04:12:24;45.10;;;30.17;;
14722;SDS011;7452;55.594;12.986;2022-11-15T04:14:57;46.50;;;30.00;;
14722;SDS011;7452;55.594;12.986;2022-11-15T04:17:35;46.17;;;29.93;;
14722;SDS011;7452;55.594;12.986;2022-11-15T04:20:04;44.67;;;29.07;;
14722;SDS011;7452;55.594;12.986;2022-11-15T04:22:51;45.70;;;29.93;;
14722;SDS011;7452;55.594;12.986;2022-11-15T04:25:37;43.73;;;28.77;;
14722;SDS011;7452;55.594;12.986;2022-11-15T04:28:04;43.33;;;29.10;;
14722;SDS011;7452;55.594;12.986;2022-11-15T04:30:30;42.63;;;30.03;;
14722;SDS011;7452;55.594;12.986;2022-11-15T04:32:59;47.47;;;30.37;;
14722;SDS011;7452;55.594;12.986;2022-11-15T04:35:26;43.67;;;29.77;;
14722;SDS011;7452;55.594;12.986;2022-11-15T04:37:53;44.60;;;29.97;;
14722;SDS011;7452;55.594;12.986;2022-11-15T04:40:20;43.37;;;30.53;;
14722;SDS011;7452;55.594;12.986;2022-11-15T04:42:50;46.27;;;30.67;;
14722;SDS011;7452;55.594;12.986;2022-11-15T04:45:17;44.60;;;29.90;;
14722;SDS011;7452;55.594;12.986;2022-11-15T04:47:44;45.03;;;31.67;;
14722;SDS011;7452;55.594;12.986;2022-11-15T04:50:13;45.77;;;30.47;;
14722;SDS011;7452;55.594;12.986;2022-11-15T04:52:42;41.93;;;30.03;;
14722;SDS011;7452;55.594;12.986;2022-11-15T04:55:10;43.10;;;29.33;;
14722;SDS011;7452;55.594;12.986;2022-11-15T04:57:37;45.23;;;30.43;;
14722;SDS011;7452;55.594;12.986;2022-11-15T05:00:05;51.00;;;31.30;;
14722;SDS011;7452;55.594;12.986;2022-11-15T05:02:36;45.63;;;30.23;;
14722;SDS011;7452;55.594;12.986;2022-11-15T05:05:22;46.00;;;31.07;;
14722;SDS011;7452;55.594;12.986;2022-11-15T05:07:50;46.10;;;29.97;;
14722;SDS011;7452;55.594;12.986;2022-11-15T05:10:17;47.67;;;31.67;;
14722;SDS011;7452;55.594;12.986;2022-11-15T05:12:44;43.93;;;30.93;;
14722;SDS011;7452;55.594;12.986;2022-11-15T05:15:12;43.43;;;29.80;;
14722;SDS011;7452;55.594;12.986;2022-11-15T05:17:39;46.33;;;31.80;;
14722;SDS011;7452;55.594;12.986;2022-11-15T05:20:06;44.57;;;30.97;;
14722;SDS011;7452;55.594;12.986;2022-11-15T05:22:35;44.33;;;30.50;;
14722;SDS011;7452;55.594;12.986;2022-11-15T05:25:03;44.40;;;31.40;;
14722;SDS011;7452;55.594;12.986;2022-11-15T05:27:31;45.73;;;31.13;;
14722;SDS011;7452;55.594;12.986;2022-11-15T05:29:58;44.17;;;30.00;;
14722;SDS011;7452;55.594;12.986;2022-11-15T05:32:25;47.00;;;31.97;;
14722;SDS011;7452;55.594;12.986;2022-11-15T05:34:54;43.13;;;30.73;;
14722;SDS011;7452;55.594;12.986;2022-11-15T05:37:21;48.20;;;33.23;;
14722;SDS011;7452;55.594;12.986;2022-11-15T05:39:49;45.17;;;31.37;;
14722;SDS011;7452;55.594;12.986;2022-11-15T05:42:16;45.47;;;31.03;;
14722;SDS011;7452;55.594;12.986;2022-11-15T05:44:46;45.10;;;32.20;;
14722;SDS011;7452;55.594;12.986;2022-11-15T05:47:15;44.33;;;31.13;;
14722;SDS011;7452;55.594;12.986;2022-11-15T05:49:45;45.93;;;32.17;;
14722;SDS011;7452;55.594;12.986;2022-11-15T05:52:15;46.23;;;33.20;;
14722;SDS011;7452;55.594;12.986;2022-11-15T05:54:44;45.30;;;33.30;;
14722;SDS011;7452;55.594;12.986;2022-11-15T05:57:12;43.43;;;32.10;;
14722;SDS011;7452;55.594;12.986;2022-11-15T05:59:39;45.80;;;31.87;;
14722;SDS011;7452;55.594;12.986;2022-11-15T06:02:08;45.27;;;30.43;;
14722;SDS011;7452;55.594;12.986;2022-11-15T06:04:35;45.07;;;30.90;;
14722;SDS011;7452;55.594;12.986;2022-11-15T06:07:02;44.67;;;31.20;;
14722;SDS011;7452;55.594;12.986;2022-11-15T06:09:29;46.23;;;31.93;;
14722;SDS011;7452;55.594;12.986;2022-11-15T06:11:56;49.60;;;32.10;;
14722;SDS011;7452;55.594;12.986;2022-11-15T06:14:25;46.73;;;31.20;;
14722;SDS011;7452;55.594;12.986;2022-11-15T06:16:52;43.00;;;30.90;;
14722;SDS011;7452;55.594;12.986;2022-11-15T06:19:19;47.37;;;32.47;;
14722;SDS011;7452;55.594;12.986;2022-11-15T06:21:46;46.00;;;33.30;;
14722;SDS011;7452;55.594;12.986;2022-11-15T06:24:13;47.17;;;32.93;;
14722;SDS011;7452;55.594;12.986;2022-11-15T06:26:40;46.57;;;31.87;;
14722;SDS011;7452;55.594;12.986;2022-11-15T06:29:07;48.47;;;32.20;;
14722;SDS011;7452;55.594;12.986;2022-11-15T06:31:35;43.07;;;31.50;;
14722;SDS011;7452;55.594;12.986;2022-11-15T06:34:02;45.90;;;32.93;;
14722;SDS011;7452;55.594;12.986;2022-11-15T06:36:29;47.47;;;32.80;;
14722;SDS011;7452;55.594;12.986;2022-11-15T06:38:56;47.43;;;33.30;;
14722;SDS011;7452;55.594;12.986;2022-11-15T06:41:23;47.17;;;33.43;;
14722;SDS011;7452;55.594;12.986;2022-11-15T06:43:50;46.17;;;33.33;;
14722;SDS011;7452;55.594;12.986;2022-11-15T06:46:17;45.07;;;32.33;;
14722;SDS011;7452;55.594;12.986;2022-11-15T06:48:45;50.23;;;33.80;;
14722;SDS011;7452;55.594;12.986;2022-11-15T06:51:12;47.50;;;32.83;;
14722;SDS011;7452;55.594;12.986;2022-11-15T06:53:39;48.47;;;33.57;;
14722;SDS011;7452;55.594;12.986;2022-11-15T06:56:07;49.43;;;34.77;;
14722;SDS011;7452;55.594;12.986;2022-11-15T06:58:34;48.53;;;32.83;;
14722;SDS011;7452;55.594;12.986;2022-11-15T07:01:02;49.57;;;34.67;;
14722;SDS011;7452;55.594;12.986;2022-11-15T07:03:30;52.37;;;35.10;;
14722;SDS011;7452;55.594;12.986;2022-11-15T07:05:59;47.47;;;34.10;;
14722;SDS011;7452;55.594;12.986;2022-11-15T07:08:27;50.80;;;35.53;;
14722;SDS011;7452;55.594;12.986;2022-11-15T07:10:55;49.97;;;34.33;;
14722;SDS011;7452;55.594;12.986;2022-11-15T07:13:25;50.37;;;35.23;;
14722;SDS011;7452;55.594;12.986;2022-11-15T07:15:53;50.83;;;35.17;;
14722;SDS011;7452;55.594;12.986;2022-11-15T07:18:20;51.83;;;34.10;;
14722;SDS011;7452;55.594;12.986;2022-11-15T07:20:47;54.70;;;34.23;;
14722;SDS011;7452;55.594;12.986;2022-11-15T07:23:15;51.60;;;36.13;;
14722;SDS011;7452;55.594;12.986;2022-11-15T07:25:42;55.47;;;35.40;;
14722;SDS011;7452;55.594;12.986;2022-11-15T07:28:09;48.57;;;34.43;;
14722;SDS011;7452;55.594;12.986;2022-11-15T07:30:36;50.90;;;33.37;;
14722;SDS011;7452;55.594;12.986;2022-11-15T07:33:03;50.10;;;34.60;;
14722;SDS011;7452;55.594;12.986;2022-11-15T07:35:30;52.43;;;34.97;;
14722;SDS011;7452;55.594;12.986;2022-11-15T07:37:58;51.37;;;35.63;;
14722;SDS011;7452;55.594;12.986;2022-11-15T07:40:28;50.10;;;34.37;;
14722;SDS011;7452;55.594;12.986;2022-11-15T07:42:58;50.73;;;35.03;;
14722;SDS011;7452;55.594;12.986;2022-11-15T07:45:26;55.47;;;35.63;;
14722;SDS011;7452;55.594;12.986;2022-11-15T07:47:53;51.60;;;34.43;;
14722;SDS011;7452;55.594;12.986;2022-11-15T07:50:21;50.80;;;34.67;;
14722;SDS011;7452;55.594;12.986;2022-11-15T07:52:52;48.63;;;33.07;;
14722;SDS011;7452;55.594;12.986;2022-11-15T07:55:21;48.53;;;33.90;;
14722;SDS011;7452;55.594;12.986;2022-11-15T07:57:50;46.40;;;32.83;;
14722;SDS011;7452;55.594;12.986;2022-11-15T08:00:17;47.03;;;31.63;;
14722;SDS011;7452;55.594;12.986;2022-11-15T08:02:45;51.63;;;33.13;;
14722;SDS011;7452;55.594;12.986;2022-11-15T08:05:13;48.57;;;33.10;;
14722;SDS011;7452;55.594;12.986;2022-11-15T08:07:40;48.37;;;32.67;;
14722;SDS011;7452;55.594;12.986;2022-11-15T08:10:07;45.20;;;32.03;;
14722;SDS011;7452;55.594;12.986;2022-11-15T08:12:36;45.07;;;32.07;;
14722;SDS011;7452;55.594;12.986;2022-11-15T08:15:05;48.70;;;33.07;;
14722;SDS011;7452;55.594;12.986;2022-11-15T08:17:33;49.97;;;33.40;;
14722;SDS011;7452;55.594;12.986;2022-11-15T08:20:00;50.73;;;33.13;;
14722;SDS011;7452;55.594;12.986;2022-11-15T08:22:28;46.90;;;33.00;;
14722;SDS011;7452;55.594;12.986;2022-11-15T08:24:55;49.10;;;33.57;;
14722;SDS011;7452;55.594;12.986;2022-11-15T08:27:22;48.17;;;33.33;;
14722;SDS011;7452;55.594;12.986;2022-11-15T08:29:49;47.20;;;31.87;;
14722;SDS011;7452;55.594;12.986;2022-11-15T08:32:17;45.20;;;32.03;;
14722;SDS011;7452;55.594;12.986;2022-11-15T08:34:44;49.23;;;32.93;;
14722;SDS011;7452;55.594;12.986;2022-11-15T08:37:11;48.37;;;32.70;;
14722;SDS011;7452;55.594;12.986;2022-11-15T08:39:38;48.13;;;33.73;;
14722;SDS011;7452;55.594;12.986;2022-11-15T08:42:05;51.60;;;33.93;;
14722;SDS011;7452;55.594;12.986;2022-11-15T08:44:32;47.53;;;33.53;;
14722;SDS011;7452;55.594;12.986;2022-11-15T08:46:59;49.57;;;33.33;;
14722;SDS011;7452;55.594;12.986;2022-11-15T08:49:27;50.07;;;33.90;;
14722;SDS011;7452;55.594;12.986;2022-11-15T08:51:54;51.80;;;35.40;;
14722;SDS011;7452;55.594;12.986;2022-11-15T08:54:21;50.93;;;35.60;;
14722;SDS011;7452;55.594;12.986;2022-11-15T08:56:48;52.83;;;36.20;;
14722;SDS011;7452;55.594;12.986;2022-11-15T08:59:15;55.23;;;35.23;;
14722;SDS011;7452;55.594;12.986;2022-11-15T09:01:42;49.87;;;34.97;;
14722;SDS011;7452;55.594;12.986;2022-11-15T09:04:09;49.63;;;33.83;;
14722;SDS011;7452;55.594;12.986;2022-11-15T09:06:37;55.30;;;36.20;;
14722;SDS011;7452;55.594;12.986;2022-11-15T09:09:04;49.97;;;35.47;;
14722;SDS011;7452;55.594;12.986;2022-11-15T09:11:31;56.53;;;36.33;;
14722;SDS011;7452;55.594;12.986;2022-11-15T09:13:58;52.10;;;35.33;;
14722;SDS011;7452;55.594;12.986;2022-11-15T09:16:25;53.43;;;37.50;;
14722;SDS011;7452;55.594;12.986;2022-11-15T09:18:52;54.57;;;36.73;;
14722;SDS011;7452;55.594;12.986;2022-11-15T09:21:19;53.03;;;35.73;;
14722;SDS011;7452;55.594;12.986;2022-11-15T09:23:49;53.70;;;35.40;;
14722;SDS011;7452;55.594;12.986;2022-11-15T09:26:17;55.03;;;36.30;;
14722;SDS011;7452;55.594;12.986;2022-11-15T09:28:44;54.23;;;34.60;;
14722;SDS011;7452;55.594;12.986;2022-11-15T09:31:11;50.40;;;33.60;;
14722;SDS011;7452;55.594;12.986;2022-11-15T09:33:38;52.03;;;34.20;;
14722;SDS011;7452;55.594;12.986;2022-11-15T09:36:06;50.20;;;34.47;;
14722;SDS011;7452;55.594;12.986;2022-11-15T09:38:34;48.53;;;33.07;;
14722;SDS011;7452;55.594;12.986;2022-11-15T09:41:13;44.07;;;30.40;;
14722;SDS011;7452;55.594;12.986;2022-11-15T09:43:50;46.30;;;31.90;;
14722;SDS011;7452;55.594;12.986;2022-11-15T09:46:29;47.53;;;31.93;;
14722;SDS011;7452;55.594;12.986;2022-11-15T09:49:04;43.67;;;30.30;;
14722;SDS011;7452;55.594;12.986;2022-11-15T09:51:33;46.43;;;31.20;;
14722;SDS011;7452;55.594;12.986;2022-11-15T09:54:13;47.03;;;31.80;;
14722;SDS011;7452;55.594;12.986;2022-11-15T09:56:50;44.20;;;30.87;;
14722;SDS011;7452;55.594;12.986;2022-11-15T09:59:23;45.47;;;30.40;;
14722;SDS011;7452;55.594;12.986;2022-11-15T10:01:59;45.70;;;31.03;;
14722;SDS011;7452;55.594;12.986;2022-11-15T10:04:35;44.37;;;30.23;;
14722;SDS011;7452;55.594;12.986;2022-11-15T10:07:06;44.60;;;30.97;;
14722;SDS011;7452;55.594;12.986;2022-11-15T10:09:42;47.27;;;31.03;;
14722;SDS011;7452;55.594;12.986;2022-11-15T10:12:15;44.07;;;30.57;;
14722;SDS011;7452;55.594;12.986;2022-11-15T10:14:43;45.30;;;31.03;;
14722;SDS011;7452;55.594;12.986;2022-11-15T10:20:10;45.93;;;32.47;;
14722;SDS011;7452;55.594;12.986;2022-11-15T10:22:44;47.80;;;31.57;;
14722;SDS011;7452;55.594;12.986;2022-11-15T10:25:16;45.17;;;31.10;;
14722;SDS011;7452;55.594;12.986;2022-11-15T10:27:52;46.73;;;32.27;;
14722;SDS011;7452;55.594;12.986;2022-11-15T10:30:21;47.00;;;32.13;;
14722;SDS011;7452;55.594;12.986;2022-11-15T10:32:49;45.00;;;30.50;;
14722;SDS011;7452;55.594;12.986;2022-11-15T10:35:21;46.60;;;32.10;;
14722;SDS011;7452;55.594;12.986;2022-11-15T10:37:51;49.30;;;33.00;;
14722;SDS011;7452;55.594;12.986;2022-11-15T10:40:30;49.33;;;32.43;;
14722;SDS011;7452;55.594;12.986;2022-11-15T10:43:05;49.37;;;33.07;;
14722;SDS011;7452;55.594;12.986;2022-11-15T10:45:40;49.20;;;33.30;;
14722;SDS011;7452;55.594;12.986;2022-11-15T10:48:23;51.10;;;33.73;;
14722;SDS011;7452;55.594;12.986;2022-11-15T10:50:51;49.53;;;33.80;;
14722;SDS011;7452;55.594;12.986;2022-11-15T10:53:25;53.40;;;35.50;;
14722;SDS011;7452;55.594;12.986;2022-11-15T10:55:58;48.87;;;33.97;;
14722;SDS011;7452;55.594;12.986;2022-11-15T10:58:32;49.67;;;32.60;;
14722;SDS011;7452;55.594;12.986;2022-11-15T11:01:09;46.43;;;31.90;;
14722;SDS011;7452;55.594;12.986;2022-11-15T11:03:43;44.80;;;30.17;;
14722;SDS011;7452;55.594;12.986;2022-11-15T11:06:12;43.37;;;29.37;;
14722;SDS011;7452;55.594;12.986;2022-11-15T11:08:52;40.57;;;27.63;;
14722;SDS011;7452;55.594;12.986;2022-11-15T11:11:22;43.20;;;29.10;;
14722;SDS011;7452;55.594;12.986;2022-11-15T11:13:50;43.43;;;29.17;;
14722;SDS011;7452;55.594;12.986;2022-11-15T11:19:15;43.07;;;28.17;;
14722;SDS011;7452;55.594;12.986;2022-11-15T11:22:03;40.70;;;26.87;;
14722;SDS011;7452;55.594;12.986;2022-11-15T11:24:39;43.27;;;29.17;;
14722;SDS011;7452;55.594;12.986;2022-11-15T11:27:18;43.00;;;26.83;;
14722;SDS011;7452;55.594;12.986;2022-11-15T11:30:01;39.73;;;27.73;;
14722;SDS011;7452;55.594;12.986;2022-11-15T11:32:36;44.33;;;28.33;;
14722;SDS011;7452;55.594;12.986;2022-11-15T11:35:19;41.97;;;27.33;;
14722;SDS011;7452;55.594;12.986;2022-11-15T11:37:51;41.50;;;26.97;;
14722;SDS011;7452;55.594;12.986;2022-11-15T11:40:29;39.67;;;27.17;;
14722;SDS011;7452;55.594;12.986;2022-11-15T11:43:02;41.43;;;27.27;;
14722;SDS011;7452;55.594;12.986;2022-11-15T11:45:52;38.53;;;25.87;;
14722;SDS011;7452;55.594;12.986;2022-11-15T11:48:46;42.93;;;26.73;;
14722;SDS011;7452;55.594;12.986;2022-11-15T11:51:18;37.97;;;26.90;;
14722;SDS011;7452;55.594;12.986;2022-11-15T11:53:50;36.47;;;26.00;;
14722;SDS011;7452;55.594;12.986;2022-11-15T11:56:23;42.10;;;26.43;;
14722;SDS011;7452;55.594;12.986;2022-11-15T11:58:53;41.20;;;27.13;;
14722;SDS011;7452;55.594;12.986;2022-11-15T12:01:25;40.30;;;25.93;;
14722;SDS011;7452;55.594;12.986;2022-11-15T12:03:59;37.73;;;25.23;;
14722;SDS011;7452;55.594;12.986;2022-11-15T12:06:32;36.00;;;24.07;;
14722;SDS011;7452;55.594;12.986;2022-11-15T12:09:04;36.63;;;24.33;;
14722;SDS011;7452;55.594;12.986;2022-11-15T12:11:42;34.60;;;24.10;;
14722;SDS011;7452;55.594;12.986;2022-11-15T12:14:19;33.93;;;23.23;;
14722;SDS011;7452;55.594;12.986;2022-11-15T12:16:53;34.57;;;22.83;;
14722;SDS011;7452;55.594;12.986;2022-11-15T12:19:21;33.90;;;22.97;;
14722;SDS011;7452;55.594;12.986;2022-11-15T12:21:48;34.27;;;22.67;;
14722;SDS011;7452;55.594;12.986;2022-11-15T12:24:22;35.13;;;22.93;;
14722;SDS011;7452;55.594;12.986;2022-11-15T12:26:54;33.97;;;22.70;;
14722;SDS011;7452;55.594;12.986;2022-11-15T12:29:27;34.83;;;23.07;;
14722;SDS011;7452;55.594;12.986;2022-11-15T12:32:01;37.03;;;22.67;;
14722;SDS011;7452;55.594;12.986;2022-11-15T12:34:29;34.93;;;23.40;;
14722;SDS011;7452;55.594;12.986;2022-11-15T12:40:04;32.37;;;22.23;;
14722;SDS011;7452;55.594;12.986;2022-11-15T12:42:57;37.53;;;23.70;;
14722;SDS011;7452;55.594;12.986;2022-11-15T12:45:27;37.67;;;24.17;;
14722;SDS011;7452;55.594;12.986;2022-11-15T12:48:21;35.43;;;22.30;;
14722;SDS011;7452;55.594;12.986;2022-11-15T12:51:02;35.07;;;24.00;;
14722;SDS011;7452;55.594;12.986;2022-11-15T12:53:33;36.60;;;24.13;;
14722;SDS011;7452;55.594;12.986;2022-11-15T12:58:52;37.57;;;24.03;;
14722;SDS011;7452;55.594;12.986;2022-11-15T13:04:28;38.73;;;24.87;;
14722;SDS011;7452;55.594;12.986;2022-11-15T13:06:57;37.40;;;24.00;;
14722;SDS011;7452;55.594;12.986;2022-11-15T13:15:35;38.83;;;25.30;;
14722;SDS011;7452;55.594;12.986;2022-11-15T13:18:26;40.10;;;23.63;;
14722;SDS011;7452;55.594;12.986;2022-11-15T13:21:17;38.77;;;24.90;;
14722;SDS011;7452;55.594;12.986;2022-11-15T13:24:04;42.77;;;24.43;;
14722;SDS011;7452;55.594;12.986;2022-11-15T13:26:37;43.37;;;26.43;;
14722;SDS011;7452;55.594;12.986;2022-11-15T13:29:12;40.97;;;24.63;;
14722;SDS011;7452;55.594;12.986;2022-11-15T13:31:43;43.27;;;24.80;;
14722;SDS011;7452;55.594;12.986;2022-11-15T13:34:15;45.33;;;24.40;;
14722;SDS011;7452;55.594;12.986;2022-11-15T13:36:49;43.40;;;25.27;;
14722;SDS011;7452;55.594;12.986;2022-11-15T13:39:23;39.57;;;23.87;;
14722;SDS011;7452;55.594;12.986;2022-11-15T13:41:53;41.97;;;25.07;;
14722;SDS011;7452;55.594;12.986;2022-11-15T13:44:20;36.47;;;23.30;;
14722;SDS011;7452;55.594;12.986;2022-11-15T13:46:48;41.80;;;23.80;;
14722;SDS011;7452;55.594;12.986;2022-11-15T13:49:28;37.67;;;23.97;;
14722;SDS011;7452;55.594;12.986;2022-11-15T13:51:58;35.33;;;22.63;;
14722;SDS011;7452;55.594;12.986;2022-11-15T13:54:29;33.33;;;20.50;;
14722;SDS011;7452;55.594;12.986;2022-11-15T13:57:00;37.03;;;22.03;;
14722;SDS011;7452;55.594;12.986;2022-11-15T13:59:30;30.73;;;20.40;;
14722;SDS011;7452;55.594;12.986;2022-11-15T14:02:01;29.03;;;18.63;;
14722;SDS011;7452;55.594;12.986;2022-11-15T14:04:36;32.53;;;20.40;;
14722;SDS011;7452;55.594;12.986;2022-11-15T14:07:15;35.27;;;21.40;;
14722;SDS011;7452;55.594;12.986;2022-11-15T14:09:45;29.17;;;18.93;;
14722;SDS011;7452;55.594;12.986;2022-11-15T14:12:22;31.33;;;18.07;;
14722;SDS011;7452;55.594;12.986;2022-11-15T14:14:52;28.97;;;18.27;;
14722;SDS011;7452;55.594;12.986;2022-11-15T14:17:20;27.43;;;17.83;;
14722;SDS011;7452;55.594;12.986;2022-11-15T14:19:58;26.70;;;17.83;;
14722;SDS011;7452;55.594;12.986;2022-11-15T14:22:28;27.17;;;16.87;;
14722;SDS011;7452;55.594;12.986;2022-11-15T14:25:07;26.73;;;16.80;;
14722;SDS011;7452;55.594;12.986;2022-11-15T14:27:41;23.10;;;15.40;;
14722;SDS011;7452;55.594;12.986;2022-11-15T14:30:12;21.90;;;15.43;;
14722;SDS011;7452;55.594;12.986;2022-11-15T14:32:42;24.37;;;16.60;;
14722;SDS011;7452;55.594;12.986;2022-11-15T14:35:13;27.27;;;16.90;;
14722;SDS011;7452;55.594;12.986;2022-11-15T14:37:44;24.00;;;15.10;;
14722;SDS011;7452;55.594;12.986;2022-11-15T14:40:12;25.20;;;16.07;;
14722;SDS011;7452;55.594;12.986;2022-11-15T14:42:41;22.27;;;15.30;;
14722;SDS011;7452;55.594;12.986;2022-11-15T14:45:12;22.50;;;15.27;;
14722;SDS011;7452;55.594;12.986;2022-11-15T14:47:40;21.70;;;14.60;;
14722;SDS011;7452;55.594;12.986;2022-11-15T14:50:10;21.57;;;14.07;;
14722;SDS011;7452;55.594;12.986;2022-11-15T14:52:38;23.97;;;15.50;;
14722;SDS011;7452;55.594;12.986;2022-11-15T14:55:11;27.30;;;15.67;;
14722;SDS011;7452;55.594;12.986;2022-11-15T14:57:43;22.40;;;15.13;;
14722;SDS011;7452;55.594;12.986;2022-11-15T15:00:11;22.17;;;15.70;;
14722;SDS011;7452;55.594;12.986;2022-11-15T15:02:39;21.10;;;15.20;;
14722;SDS011;7452;55.594;12.986;2022-11-15T15:05:12;23.33;;;15.60;;
14722;SDS011;7452;55.594;12.986;2022-11-15T15:07:41;23.87;;;15.97;;
14722;SDS011;7452;55.594;12.986;2022-11-15T15:10:09;22.27;;;14.87;;